sensor_id;sensor_type;location;lat;lon;timestamp;pressure;altitude;pressure_sealevel;temperature;humidity
20027;BME280;10174;42.688;23.344;2022-12-07T00:00:39;95355.38;;;5.23;88.56
20027;BME280;10174;42.688;23.344;2022-12-07T00:03:05;95324.78;;;5.13;88.57
20027;BME280;10174;42.688;23.344;2022-12-07T00:05:30;95360.13;;;5.32;87.53
20027;BME280;10174;42.688;23.344;2022-12-07T00:07:55;95327.13;;;5.33;87.52
20027;BME280;10174;42.688;23.344;2022-12-07T00:10:21;95353.19;;;5.31;87.98
20027;BME280;10174;42.688;23.344;2022-12-07T00:12:46;95342.19;;;5.40;87.07
20027;BME280;10174;42.688;23.344;2022-12-07T00:15:11;95342.69;;;5.48;86.57
20027;BME280;10174;42.688;23.344;2022-12-07T00:17:37;95349.97;;;5.41;87.36
20027;BME280;10174;42.688;23.344;2022-12-07T00:20:02;95320.47;;;5.12;88.18
20027;BME280;10174;42.688;23.344;2022-12-07T00:22:28;95342.06;;;5.23;88.12
20027;BME280;10174;42.688;23.344;2022-12-07T00:24:53;95338.69;;;5.27;87.68
20027;BME280;10174;42.688;23.344;2022-12-07T00:27:18;95328.34;;;5.07;88.33
20027;BME280;10174;42.688;23.344;2022-12-07T00:29:44;95346.31;;;5.24;88.17
20027;BME280;10174;42.688;23.344;2022-12-07T00:32:09;95342.31;;;5.33;88.31
20027;BME280;10174;42.688;23.344;2022-12-07T00:34:34;95324.88;;;5.18;87.58
20027;BME280;10174;42.688;23.344;2022-12-07T00:37:00;95352.38;;;5.31;87.74
20027;BME280;10174;42.688;23.344;2022-12-07T00:39:25;95343.75;;;5.17;88.16
20027;BME280;10174;42.688;23.344;2022-12-07T00:41:50;95346.00;;;5.32;88.00
20027;BME280;10174;42.688;23.344;2022-12-07T00:44:16;95336.25;;;5.26;87.59
20027;BME280;10174;42.688;23.344;2022-12-07T00:46:41;95297.16;;;4.96;87.78
20027;BME280;10174;42.688;23.344;2022-12-07T00:49:07;95331.41;;;5.23;87.97
20027;BME280;10174;42.688;23.344;2022-12-07T00:51:32;95323.06;;;5.31;87.77
20027;BME280;10174;42.688;23.344;2022-12-07T00:53:57;95323.97;;;5.25;87.71
20027;BME280;10174;42.688;23.344;2022-12-07T00:56:25;95343.22;;;5.27;88.41
20027;BME280;10174;42.688;23.344;2022-12-07T00:58:56;95328.16;;;5.32;87.73
20027;BME280;10174;42.688;23.344;2022-12-07T01:01:23;95338.13;;;5.37;87.34
20027;BME280;10174;42.688;23.344;2022-12-07T01:03:49;95311.00;;;5.16;87.45
20027;BME280;10174;42.688;23.344;2022-12-07T01:06:16;95260.59;;;5.03;86.40
20027;BME280;10174;42.688;23.344;2022-12-07T01:08:42;95331.19;;;5.36;86.77
20027;BME280;10174;42.688;23.344;2022-12-07T01:11:09;95338.97;;;5.38;86.86
20027;BME280;10174;42.688;23.344;2022-12-07T01:13:36;95339.91;;;5.55;86.46
20027;BME280;10174;42.688;23.344;2022-12-07T01:16:04;95332.34;;;5.40;86.57
20027;BME280;10174;42.688;23.344;2022-12-07T01:18:32;95340.78;;;5.37;86.83
20027;BME280;10174;42.688;23.344;2022-12-07T01:21:04;95304.50;;;5.12;87.77
20027;BME280;10174;42.688;23.344;2022-12-07T01:23:31;95327.13;;;5.33;87.38
20027;BME280;10174;42.688;23.344;2022-12-07T01:25:59;95319.97;;;5.46;87.17
20027;BME280;10174;42.688;23.344;2022-12-07T01:28:25;95322.63;;;5.58;86.19
20027;BME280;10174;42.688;23.344;2022-12-07T01:33:23;95283.44;;;5.23;86.26
20027;BME280;10174;42.688;23.344;2022-12-07T01:35:48;95307.06;;;5.31;87.25
20027;BME280;10174;42.688;23.344;2022-12-07T01:38:13;95317.63;;;5.26;87.75
20027;BME280;10174;42.688;23.344;2022-12-07T01:40:39;95310.09;;;5.23;87.80
20027;BME280;10174;42.688;23.344;2022-12-07T01:43:14;95320.75;;;5.23;88.13
20027;BME280;10174;42.688;23.344;2022-12-07T01:45:41;95317.28;;;5.34;86.54
20027;BME280;10174;42.688;23.344;2022-12-07T01:48:09;95312.06;;;5.27;86.82
20027;BME280;10174;42.688;23.344;2022-12-07T01:50:37;95318.19;;;5.28;86.86
20027;BME280;10174;42.688;23.344;2022-12-07T01:53:05;95316.00;;;5.37;87.41
20027;BME280;10174;42.688;23.344;2022-12-07T01:55:32;95312.66;;;5.41;86.75
20027;BME280;10174;42.688;23.344;2022-12-07T01:57:58;95304.63;;;5.29;86.92
20027;BME280;10174;42.688;23.344;2022-12-07T02:00:23;95277.88;;;5.12;87.52
20027;BME280;10174;42.688;23.344;2022-12-07T02:03:13;95296.66;;;5.41;86.44
20027;BME280;10174;42.688;23.344;2022-12-07T02:05:41;95285.44;;;5.39;86.40
20027;BME280;10174;42.688;23.344;2022-12-07T02:08:07;95295.50;;;5.37;86.78
20027;BME280;10174;42.688;23.344;2022-12-07T02:10:32;95280.31;;;5.14;87.22
20027;BME280;10174;42.688;23.344;2022-12-07T02:13:02;95305.78;;;5.22;87.72
20027;BME280;10174;42.688;23.344;2022-12-07T02:15:41;95302.56;;;5.31;87.73
20027;BME280;10174;42.688;23.344;2022-12-07T02:21:00;95302.34;;;5.33;87.23
20027;BME280;10174;42.688;23.344;2022-12-07T02:28:34;95295.41;;;5.44;86.87
20027;BME280;10174;42.688;23.344;2022-12-07T02:31:15;95281.13;;;5.38;86.54
20027;BME280;10174;42.688;23.344;2022-12-07T02:33:54;95291.81;;;5.38;87.18
20027;BME280;10174;42.688;23.344;2022-12-07T02:36:27;95281.25;;;5.43;87.28
20027;BME280;10174;42.688;23.344;2022-12-07T02:41:24;95269.75;;;5.07;87.89
20027;BME280;10174;42.688;23.344;2022-12-07T02:43:54;95278.31;;;5.09;87.81
20027;BME280;10174;42.688;23.344;2022-12-07T02:46:23;95275.41;;;4.99;87.91
20027;BME280;10174;42.688;23.344;2022-12-07T02:48:51;95275.16;;;5.00;87.82
20027;BME280;10174;42.688;23.344;2022-12-07T02:51:18;95281.22;;;5.08;87.63
20027;BME280;10174;42.688;23.344;2022-12-07T02:53:44;95285.75;;;5.07;87.52
20027;BME280;10174;42.688;23.344;2022-12-07T03:07:24;95263.91;;;4.87;88.12
20027;BME280;10174;42.688;23.344;2022-12-07T03:12:32;95260.75;;;4.78;89.44
20027;BME280;10174;42.688;23.344;2022-12-07T03:15:10;95265.75;;;4.74;88.90
20027;BME280;10174;42.688;23.344;2022-12-07T03:17:39;95258.66;;;4.68;88.56
20027;BME280;10174;42.688;23.344;2022-12-07T03:20:08;95248.81;;;4.57;89.08
20027;BME280;10174;42.688;23.344;2022-12-07T03:22:35;95262.47;;;4.60;88.82
20027;BME280;10174;42.688;23.344;2022-12-07T03:25:08;95257.81;;;4.56;88.97
20027;BME280;10174;42.688;23.344;2022-12-07T03:27:39;95257.38;;;4.59;88.86
20027;BME280;10174;42.688;23.344;2022-12-07T03:37:49;95279.59;;;4.34;89.76
20027;BME280;10174;42.688;23.344;2022-12-07T03:40:26;95268.53;;;4.19;89.82
20027;BME280;10174;42.688;23.344;2022-12-07T03:42:55;95257.91;;;4.19;90.17
20027;BME280;10174;42.688;23.344;2022-12-07T03:45:25;95279.44;;;4.29;90.23
20027;BME280;10174;42.688;23.344;2022-12-07T03:48:35;95231.59;;;4.10;89.93
20027;BME280;10174;42.688;23.344;2022-12-07T03:50:59;95263.41;;;4.36;90.22
20027;BME280;10174;42.688;23.344;2022-12-07T03:53:36;95247.50;;;4.17;89.72
20027;BME280;10174;42.688;23.344;2022-12-07T03:56:05;95278.13;;;4.20;90.22
20027;BME280;10174;42.688;23.344;2022-12-07T03:58:33;95255.91;;;4.14;90.56
20027;BME280;10174;42.688;23.344;2022-12-07T04:00:59;95169.78;;;3.66;90.29
20027;BME280;10174;42.688;23.344;2022-12-07T04:03:24;95251.84;;;4.12;90.25
20027;BME280;10174;42.688;23.344;2022-12-07T04:05:50;95151.59;;;3.51;90.29
20027;BME280;10174;42.688;23.344;2022-12-07T04:08:15;95251.53;;;4.20;90.39
20027;BME280;10174;42.688;23.344;2022-12-07T04:10:41;95122.28;;;3.39;90.16
20027;BME280;10174;42.688;23.344;2022-12-07T04:13:06;95169.22;;;3.64;90.36
20027;BME280;10174;42.688;23.344;2022-12-07T04:15:31;95232.28;;;4.06;90.06
20027;BME280;10174;42.688;23.344;2022-12-07T04:17:57;95258.25;;;4.22;90.60
20027;BME280;10174;42.688;23.344;2022-12-07T04:20:22;95253.28;;;4.26;90.78
20027;BME280;10174;42.688;23.344;2022-12-07T04:22:48;95235.56;;;4.20;89.91
20027;BME280;10174;42.688;23.344;2022-12-07T04:25:13;95228.66;;;4.19;90.07
20027;BME280;10174;42.688;23.344;2022-12-07T04:27:39;95242.66;;;4.26;89.74
20027;BME280;10174;42.688;23.344;2022-12-07T04:30:04;95242.00;;;4.12;89.90
20027;BME280;10174;42.688;23.344;2022-12-07T04:32:30;95154.81;;;3.53;90.02
20027;BME280;10174;42.688;23.344;2022-12-07T04:34:55;95183.75;;;3.62;90.19
20027;BME280;10174;42.688;23.344;2022-12-07T04:37:21;95253.94;;;4.09;90.80
20027;BME280;10174;42.688;23.344;2022-12-07T04:39:46;95252.28;;;4.08;90.40
20027;BME280;10174;42.688;23.344;2022-12-07T04:42:12;95263.06;;;4.14;90.89
20027;BME280;10174;42.688;23.344;2022-12-07T04:44:40;95192.34;;;3.75;90.45
20027;BME280;10174;42.688;23.344;2022-12-07T04:47:06;95263.28;;;4.12;90.89
20027;BME280;10174;42.688;23.344;2022-12-07T04:49:31;95271.13;;;4.07;90.91
20027;BME280;10174;42.688;23.344;2022-12-07T04:51:57;95263.81;;;4.02;90.71
20027;BME280;10174;42.688;23.344;2022-12-07T04:54:22;95155.81;;;3.41;90.65
20027;BME280;10174;42.688;23.344;2022-12-07T04:56:47;95267.91;;;4.05;90.91
20027;BME280;10174;42.688;23.344;2022-12-07T04:59:14;95232.97;;;3.83;91.25
20027;BME280;10174;42.688;23.344;2022-12-07T05:01:40;95255.25;;;3.82;91.52
20027;BME280;10174;42.688;23.344;2022-12-07T05:04:06;95254.66;;;3.80;91.35
20027;BME280;10174;42.688;23.344;2022-12-07T05:06:32;95261.53;;;3.87;91.44
20027;BME280;10174;42.688;23.344;2022-12-07T05:08:57;95269.28;;;3.89;91.25
20027;BME280;10174;42.688;23.344;2022-12-07T05:11:23;95264.59;;;3.91;91.38
20027;BME280;10174;42.688;23.344;2022-12-07T05:14:09;95258.00;;;3.75;91.12
20027;BME280;10174;42.688;23.344;2022-12-07T05:16:35;95259.63;;;3.76;91.25
20027;BME280;10174;42.688;23.344;2022-12-07T05:19:00;95253.94;;;3.72;91.15
20027;BME280;10174;42.688;23.344;2022-12-07T05:21:25;95266.94;;;3.81;91.58
20027;BME280;10174;42.688;23.344;2022-12-07T05:23:51;95270.47;;;3.93;91.41
20027;BME280;10174;42.688;23.344;2022-12-07T05:26:17;95265.38;;;4.10;90.58
20027;BME280;10174;42.688;23.344;2022-12-07T05:28:42;95263.03;;;4.02;91.18
20027;BME280;10174;42.688;23.344;2022-12-07T05:31:08;95262.72;;;3.91;91.61
20027;BME280;10174;42.688;23.344;2022-12-07T05:33:33;95264.84;;;3.83;91.43
20027;BME280;10174;42.688;23.344;2022-12-07T05:35:58;95239.16;;;3.77;90.99
20027;BME280;10174;42.688;23.344;2022-12-07T05:38:24;95170.91;;;3.40;90.92
20027;BME280;10174;42.688;23.344;2022-12-07T05:40:50;95269.59;;;3.99;90.98
20027;BME280;10174;42.688;23.344;2022-12-07T05:43:15;95276.97;;;3.97;91.37
20027;BME280;10174;42.688;23.344;2022-12-07T05:45:41;95258.81;;;3.94;91.11
20027;BME280;10174;42.688;23.344;2022-12-07T05:48:06;95255.28;;;4.00;91.30
20027;BME280;10174;42.688;23.344;2022-12-07T05:50:32;95192.75;;;3.61;91.47
20027;BME280;10174;42.688;23.344;2022-12-07T05:52:57;95249.97;;;4.00;91.84
20027;BME280;10174;42.688;23.344;2022-12-07T05:55:22;95155.72;;;3.47;92.25
20027;BME280;10174;42.688;23.344;2022-12-07T05:57:48;95258.47;;;4.21;92.29
20027;BME280;10174;42.688;23.344;2022-12-07T06:00:32;95261.50;;;4.24;92.25
20027;BME280;10174;42.688;23.344;2022-12-07T06:02:57;95244.75;;;4.24;91.57
20027;BME280;10174;42.688;23.344;2022-12-07T06:05:23;95254.69;;;4.28;90.61
20027;BME280;10174;42.688;23.344;2022-12-07T06:07:49;95176.41;;;3.75;90.70
20027;BME280;10174;42.688;23.344;2022-12-07T06:10:14;95257.75;;;4.32;90.27
20027;BME280;10174;42.688;23.344;2022-12-07T06:12:40;95255.66;;;4.34;90.51
20027;BME280;10174;42.688;23.344;2022-12-07T06:15:08;95231.38;;;4.12;91.34
20027;BME280;10174;42.688;23.344;2022-12-07T06:17:34;95254.19;;;4.20;91.48
20027;BME280;10174;42.688;23.344;2022-12-07T06:19:59;95248.34;;;4.30;91.22
20027;BME280;10174;42.688;23.344;2022-12-07T06:22:24;95267.72;;;4.49;91.11
20027;BME280;10174;42.688;23.344;2022-12-07T06:24:50;95266.13;;;4.48;90.57
20027;BME280;10174;42.688;23.344;2022-12-07T06:27:15;95260.03;;;4.59;89.82
20027;BME280;10174;42.688;23.344;2022-12-07T06:29:40;95244.28;;;4.57;89.06
20027;BME280;10174;42.688;23.344;2022-12-07T06:32:06;95197.72;;;4.36;88.54
20027;BME280;10174;42.688;23.344;2022-12-07T06:34:31;95268.13;;;4.64;89.32
20027;BME280;10174;42.688;23.344;2022-12-07T06:36:57;95268.59;;;4.61;89.74
20027;BME280;10174;42.688;23.344;2022-12-07T06:39:25;95275.53;;;4.62;90.10
20027;BME280;10174;42.688;23.344;2022-12-07T06:41:51;95268.47;;;4.56;90.16
20027;BME280;10174;42.688;23.344;2022-12-07T06:44:20;95282.28;;;4.64;90.68
20027;BME280;10174;42.688;23.344;2022-12-07T06:46:45;95274.75;;;4.61;90.51
20027;BME280;10174;42.688;23.344;2022-12-07T06:49:11;95289.47;;;4.76;90.56
20027;BME280;10174;42.688;23.344;2022-12-07T06:51:37;95280.03;;;4.92;90.28
20027;BME280;10174;42.688;23.344;2022-12-07T06:54:15;95255.03;;;4.93;88.68
20027;BME280;10174;42.688;23.344;2022-12-07T06:56:40;95273.09;;;5.14;89.27
20027;BME280;10174;42.688;23.344;2022-12-07T06:59:06;95271.16;;;5.22;88.45
20027;BME280;10174;42.688;23.344;2022-12-07T07:01:33;95283.69;;;5.21;88.70
20027;BME280;10174;42.688;23.344;2022-12-07T07:03:59;95283.91;;;5.20;88.71
20027;BME280;10174;42.688;23.344;2022-12-07T07:06:25;95278.59;;;5.31;88.47
20027;BME280;10174;42.688;23.344;2022-12-07T07:08:50;95279.16;;;5.22;88.48
20027;BME280;10174;42.688;23.344;2022-12-07T07:11:16;95257.13;;;5.14;88.35
20027;BME280;10174;42.688;23.344;2022-12-07T07:13:42;95281.03;;;5.45;88.27
20027;BME280;10174;42.688;23.344;2022-12-07T07:16:08;95282.06;;;5.44;88.36
20027;BME280;10174;42.688;23.344;2022-12-07T07:18:34;95280.91;;;5.63;88.08
20027;BME280;10174;42.688;23.344;2022-12-07T07:21:00;95281.72;;;5.64;86.93
20027;BME280;10174;42.688;23.344;2022-12-07T07:23:25;95280.09;;;5.75;87.28
20027;BME280;10174;42.688;23.344;2022-12-07T07:25:51;95275.81;;;5.74;86.61
20027;BME280;10174;42.688;23.344;2022-12-07T07:28:16;95247.88;;;5.64;86.00
20027;BME280;10174;42.688;23.344;2022-12-07T07:30:42;95263.31;;;5.62;85.63
20027;BME280;10174;42.688;23.344;2022-12-07T07:33:09;95286.94;;;5.70;86.74
20027;BME280;10174;42.688;23.344;2022-12-07T07:35:35;95286.69;;;5.72;86.59
20027;BME280;10174;42.688;23.344;2022-12-07T07:38:01;95256.13;;;5.39;86.88
20027;BME280;10174;42.688;23.344;2022-12-07T07:40:27;95271.50;;;5.37;87.05
20027;BME280;10174;42.688;23.344;2022-12-07T07:42:54;95292.16;;;5.53;87.33
20027;BME280;10174;42.688;23.344;2022-12-07T07:45:21;95301.53;;;5.68;87.10
20027;BME280;10174;42.688;23.344;2022-12-07T07:47:47;95270.13;;;5.70;86.15
20027;BME280;10174;42.688;23.344;2022-12-07T07:50:13;95286.25;;;5.99;85.20
20027;BME280;10174;42.688;23.344;2022-12-07T07:52:39;95265.34;;;5.96;84.84
20027;BME280;10174;42.688;23.344;2022-12-07T07:55:05;95270.69;;;5.96;85.23
20027;BME280;10174;42.688;23.344;2022-12-07T07:57:30;95291.31;;;5.88;85.12
20027;BME280;10174;42.688;23.344;2022-12-07T07:59:56;95276.72;;;5.79;85.15
20027;BME280;10174;42.688;23.344;2022-12-07T08:02:22;95293.66;;;5.97;84.67
20027;BME280;10174;42.688;23.344;2022-12-07T08:04:48;95286.66;;;6.19;84.04
20027;BME280;10174;42.688;23.344;2022-12-07T08:07:14;95291.06;;;6.26;83.90
20027;BME280;10174;42.688;23.344;2022-12-07T08:09:40;95173.25;;;5.52;83.52
20027;BME280;10174;42.688;23.344;2022-12-07T08:12:06;95280.63;;;6.12;84.03
20027;BME280;10174;42.688;23.344;2022-12-07T08:14:32;95288.97;;;6.28;84.07
20027;BME280;10174;42.688;23.344;2022-12-07T08:16:59;95255.13;;;6.16;83.70
20027;BME280;10174;42.688;23.344;2022-12-07T08:19:24;95275.50;;;6.22;83.48
20027;BME280;10174;42.688;23.344;2022-12-07T08:21:50;95272.63;;;6.12;83.80
20027;BME280;10174;42.688;23.344;2022-12-07T08:24:15;95278.53;;;6.26;83.22
20027;BME280;10174;42.688;23.344;2022-12-07T08:26:41;95281.44;;;6.24;83.72
20027;BME280;10174;42.688;23.344;2022-12-07T08:29:07;95285.63;;;6.20;83.80
20027;BME280;10174;42.688;23.344;2022-12-07T08:31:32;95282.59;;;6.17;84.04
20027;BME280;10174;42.688;23.344;2022-12-07T08:33:58;95179.03;;;5.73;83.39
20027;BME280;10174;42.688;23.344;2022-12-07T08:36:24;95279.63;;;6.42;83.41
20027;BME280;10174;42.688;23.344;2022-12-07T08:38:50;95207.03;;;5.99;82.75
20027;BME280;10174;42.688;23.344;2022-12-07T08:41:15;95283.16;;;6.88;82.20
20027;BME280;10174;42.688;23.344;2022-12-07T08:43:41;95282.50;;;6.81;81.18
20027;BME280;10174;42.688;23.344;2022-12-07T08:46:34;95257.50;;;6.41;81.91
20027;BME280;10174;42.688;23.344;2022-12-07T08:49:03;95262.63;;;6.31;82.54
20027;BME280;10174;42.688;23.344;2022-12-07T08:51:29;95248.13;;;6.27;82.53
20027;BME280;10174;42.688;23.344;2022-12-07T08:53:56;95252.09;;;6.24;82.58
20027;BME280;10174;42.688;23.344;2022-12-07T08:56:23;95270.25;;;6.39;83.23
20027;BME280;10174;42.688;23.344;2022-12-07T08:58:49;95210.03;;;6.03;83.01
20027;BME280;10174;42.688;23.344;2022-12-07T09:01:15;95256.50;;;6.31;82.65
20027;BME280;10174;42.688;23.344;2022-12-07T09:03:40;95263.72;;;6.47;82.09
20027;BME280;10174;42.688;23.344;2022-12-07T09:06:06;95219.25;;;6.24;82.48
20027;BME280;10174;42.688;23.344;2022-12-07T09:08:42;95227.44;;;6.63;81.52
20027;BME280;10174;42.688;23.344;2022-12-07T09:11:09;95255.50;;;7.11;80.71
20027;BME280;10174;42.688;23.344;2022-12-07T09:13:34;95249.84;;;7.08;80.21
20027;BME280;10174;42.688;23.344;2022-12-07T09:16:00;95192.69;;;6.92;79.44
20027;BME280;10174;42.688;23.344;2022-12-07T09:18:26;95239.31;;;7.18;79.40
20027;BME280;10174;42.688;23.344;2022-12-07T09:20:51;95243.38;;;7.38;78.87
20027;BME280;10174;42.688;23.344;2022-12-07T09:23:16;95210.31;;;7.44;78.83
20027;BME280;10174;42.688;23.344;2022-12-07T09:25:42;95232.22;;;7.63;78.46
20027;BME280;10174;42.688;23.344;2022-12-07T09:28:08;95237.72;;;7.95;77.11
20027;BME280;10174;42.688;23.344;2022-12-07T09:30:33;95142.63;;;7.21;76.87
20027;BME280;10174;42.688;23.344;2022-12-07T09:32:59;95227.66;;;7.63;77.85
20027;BME280;10174;42.688;23.344;2022-12-07T09:35:24;95121.94;;;6.94;78.09
20027;BME280;10174;42.688;23.344;2022-12-07T09:37:50;95099.06;;;6.65;78.77
20027;BME280;10174;42.688;23.344;2022-12-07T09:40:17;95223.44;;;7.28;79.50
20027;BME280;10174;42.688;23.344;2022-12-07T09:42:48;95213.31;;;7.30;78.96
20027;BME280;10174;42.688;23.344;2022-12-07T09:45:29;95156.25;;;7.03;78.96
20027;BME280;10174;42.688;23.344;2022-12-07T09:47:58;95216.75;;;7.48;78.82
20027;BME280;10174;42.688;23.344;2022-12-07T09:50:28;95207.69;;;7.49;79.14
20027;BME280;10174;42.688;23.344;2022-12-07T09:53:07;95207.22;;;7.52;79.06
20027;BME280;10174;42.688;23.344;2022-12-07T09:55:33;95204.13;;;7.43;79.06
20027;BME280;10174;42.688;23.344;2022-12-07T09:58:00;95130.59;;;7.02;78.84
20027;BME280;10174;42.688;23.344;2022-12-07T10:00:26;95104.44;;;7.04;78.17
20027;BME280;10174;42.688;23.344;2022-12-07T10:05:36;95180.91;;;7.66;77.81
20027;BME280;10174;42.688;23.344;2022-12-07T10:08:03;95175.22;;;7.79;77.64
20027;BME280;10174;42.688;23.344;2022-12-07T10:10:31;95188.94;;;8.32;76.40
20027;BME280;10174;42.688;23.344;2022-12-07T10:12:58;95189.63;;;8.45;74.88
20027;BME280;10174;42.688;23.344;2022-12-07T10:15:44;95155.38;;;7.97;75.83
20027;BME280;10174;42.688;23.344;2022-12-07T10:18:40;95180.63;;;8.07;77.04
20027;BME280;10174;42.688;23.344;2022-12-07T10:21:15;95170.28;;;8.15;76.38
20027;BME280;10174;42.688;23.344;2022-12-07T10:24:19;95173.56;;;8.45;75.94
20027;BME280;10174;42.688;23.344;2022-12-07T10:29:19;95164.00;;;8.81;74.45
20027;BME280;10174;42.688;23.344;2022-12-07T10:31:50;95147.41;;;8.84;73.58
20027;BME280;10174;42.688;23.344;2022-12-07T10:34:26;95140.72;;;8.87;73.08
20027;BME280;10174;42.688;23.344;2022-12-07T10:36:53;95146.34;;;9.23;72.54
20027;BME280;10174;42.688;23.344;2022-12-07T10:39:23;95123.59;;;9.31;72.24
20027;BME280;10174;42.688;23.344;2022-12-07T10:42:01;95139.63;;;9.68;71.59
20027;BME280;10174;42.688;23.344;2022-12-07T10:44:32;95125.56;;;9.45;71.06
20027;BME280;10174;42.688;23.344;2022-12-07T10:55:19;95129.91;;;9.57;70.50
20027;BME280;10174;42.688;23.344;2022-12-07T11:00:43;95095.13;;;9.77;69.51
20027;BME280;10174;42.688;23.344;2022-12-07T11:03:30;95110.78;;;10.11;69.13
20027;BME280;10174;42.688;23.344;2022-12-07T11:06:09;95109.13;;;9.95;69.26
20027;BME280;10174;42.688;23.344;2022-12-07T11:16:58;95040.88;;;9.60;68.43
20027;BME280;10174;42.688;23.344;2022-12-07T11:28:13;95088.00;;;10.24;68.16
20027;BME280;10174;42.688;23.344;2022-12-07T11:33:25;95073.94;;;9.81;69.69
20027;BME280;10174;42.688;23.344;2022-12-07T11:36:17;95064.09;;;10.23;68.52
20027;BME280;10174;42.688;23.344;2022-12-07T11:38:56;94980.03;;;9.86;67.82
20027;BME280;10174;42.688;23.344;2022-12-07T11:41:26;95032.97;;;10.27;67.92
20027;BME280;10174;42.688;23.344;2022-12-07T11:46:25;95050.72;;;10.59;67.13
20027;BME280;10174;42.688;23.344;2022-12-07T11:49:01;95042.13;;;10.51;67.44
20027;BME280;10174;42.688;23.344;2022-12-07T11:51:28;95065.22;;;10.37;67.98
20027;BME280;10174;42.688;23.344;2022-12-07T11:54:03;95063.34;;;10.74;67.54
20027;BME280;10174;42.688;23.344;2022-12-07T11:56:36;95034.06;;;10.67;67.17
20027;BME280;10174;42.688;23.344;2022-12-07T12:04:27;95022.72;;;12.26;61.00
20027;BME280;10174;42.688;23.344;2022-12-07T12:06:54;95024.50;;;13.00;59.20
20027;BME280;10174;42.688;23.344;2022-12-07T12:20:24;95027.81;;;11.78;62.62
20027;BME280;10174;42.688;23.344;2022-12-07T12:25:59;95027.63;;;10.78;64.73
20027;BME280;10174;42.688;23.344;2022-12-07T12:28:32;95005.06;;;10.48;66.01
20027;BME280;10174;42.688;23.344;2022-12-07T12:31:15;95004.50;;;10.05;68.15
20027;BME280;10174;42.688;23.344;2022-12-07T12:33:46;95003.16;;;10.08;68.65
20027;BME280;10174;42.688;23.344;2022-12-07T12:36:18;95009.84;;;10.10;68.59
20027;BME280;10174;42.688;23.344;2022-12-07T12:46:54;94986.19;;;11.00;66.38
20027;BME280;10174;42.688;23.344;2022-12-07T12:51:53;94985.81;;;12.61;61.09
20027;BME280;10174;42.688;23.344;2022-12-07T12:54:21;94918.69;;;12.36;59.58
20027;BME280;10174;42.688;23.344;2022-12-07T12:59:31;94985.81;;;12.61;60.02
20027;BME280;10174;42.688;23.344;2022-12-07T13:15:51;94985.59;;;11.13;65.64
20027;BME280;10174;42.688;23.344;2022-12-07T13:23:29;95003.41;;;10.83;67.30
20027;BME280;10174;42.688;23.344;2022-12-07T13:26:04;94977.69;;;10.36;68.42
20027;BME280;10174;42.688;23.344;2022-12-07T13:28:38;95008.00;;;10.62;68.03
20027;BME280;10174;42.688;23.344;2022-12-07T13:33:57;94955.38;;;10.56;67.70
20027;BME280;10174;42.688;23.344;2022-12-07T13:36:29;94984.03;;;10.97;67.09
20027;BME280;10174;42.688;23.344;2022-12-07T13:41:41;94975.69;;;10.98;67.14
20027;BME280;10174;42.688;23.344;2022-12-07T13:44:13;94926.06;;;10.75;66.44
20027;BME280;10174;42.688;23.344;2022-12-07T13:49:25;94982.88;;;11.29;66.39
20027;BME280;10174;42.688;23.344;2022-12-07T13:51:52;94985.63;;;10.98;68.12
20027;BME280;10174;42.688;23.344;2022-12-07T13:54:18;94959.63;;;10.73;68.77
20027;BME280;10174;42.688;23.344;2022-12-07T13:56:48;94947.03;;;10.58;68.93
20027;BME280;10174;42.688;23.344;2022-12-07T13:59:23;94914.00;;;10.57;68.45
20027;BME280;10174;42.688;23.344;2022-12-07T14:01:50;94964.13;;;11.03;67.41
20027;BME280;10174;42.688;23.344;2022-12-07T14:04:36;94952.13;;;10.59;69.04
20027;BME280;10174;42.688;23.344;2022-12-07T14:07:28;94946.50;;;10.50;69.08
20027;BME280;10174;42.688;23.344;2022-12-07T14:10:04;94976.84;;;10.66;69.05
20027;BME280;10174;42.688;23.344;2022-12-07T14:12:31;94950.81;;;10.41;69.26
20027;BME280;10174;42.688;23.344;2022-12-07T14:14:59;94969.34;;;10.58;69.29
20027;BME280;10174;42.688;23.344;2022-12-07T14:17:29;94985.44;;;10.74;68.77
20027;BME280;10174;42.688;23.344;2022-12-07T14:19:56;94984.38;;;10.59;69.15
20027;BME280;10174;42.688;23.344;2022-12-07T14:24:49;94982.50;;;10.39;70.54
20027;BME280;10174;42.688;23.344;2022-12-07T14:27:23;94976.56;;;10.32;70.02
20027;BME280;10174;42.688;23.344;2022-12-07T14:29:51;94999.41;;;10.29;70.79
20027;BME280;10174;42.688;23.344;2022-12-07T14:32:27;94988.94;;;10.12;71.17
20027;BME280;10174;42.688;23.344;2022-12-07T14:37:32;94998.03;;;9.91;72.64
20027;BME280;10174;42.688;23.344;2022-12-07T14:39:58;94993.72;;;9.79;72.86
20027;BME280;10174;42.688;23.344;2022-12-07T14:42:26;94979.50;;;9.79;72.71
20027;BME280;10174;42.688;23.344;2022-12-07T14:44:52;94982.44;;;9.67;73.06
20027;BME280;10174;42.688;23.344;2022-12-07T14:47:18;94983.47;;;9.56;73.24
20027;BME280;10174;42.688;23.344;2022-12-07T14:49:43;94996.34;;;9.54;73.65
20027;BME280;10174;42.688;23.344;2022-12-07T14:52:14;94980.72;;;9.35;74.01
20027;BME280;10174;42.688;23.344;2022-12-07T14:54:41;94994.56;;;9.06;75.52
20027;BME280;10174;42.688;23.344;2022-12-07T14:57:09;94981.03;;;8.81;76.33
20027;BME280;10174;42.688;23.344;2022-12-07T14:59:35;94995.00;;;8.93;75.85
20027;BME280;10174;42.688;23.344;2022-12-07T15:02:00;94995.19;;;8.76;75.84
20027;BME280;10174;42.688;23.344;2022-12-07T15:04:25;94979.72;;;8.46;77.21
20027;BME280;10174;42.688;23.344;2022-12-07T15:06:59;94996.28;;;8.43;77.91
20027;BME280;10174;42.688;23.344;2022-12-07T15:09:25;94988.72;;;8.29;78.29
20027;BME280;10174;42.688;23.344;2022-12-07T15:11:51;94997.09;;;8.43;77.49
20027;BME280;10174;42.688;23.344;2022-12-07T15:14:16;94898.63;;;7.70;77.83
20027;BME280;10174;42.688;23.344;2022-12-07T15:16:43;94903.31;;;7.58;78.41
20027;BME280;10174;42.688;23.344;2022-12-07T15:19:16;95009.16;;;8.13;78.74
20027;BME280;10174;42.688;23.344;2022-12-07T15:21:42;95017.00;;;8.20;78.50